sensor_id;sensor_type;location;lat;lon;timestamp;P1;durP1;ratioP1;P2;durP2;ratioP2
45536;SDS011;31262;51.978;5.924;2022-07-12T00:01:29;2.72;;;0.60;;
45536;SDS011;31262;51.978;5.924;2022-07-12T00:03:54;2.20;;;0.70;;
45536;SDS011;31262;51.978;5.924;2022-07-12T00:06:20;1.80;;;0.75;;
45536;SDS011;31262;51.978;5.924;2022-07-12T00:08:46;1.75;;;0.60;;
45536;SDS011;31262;51.978;5.924;2022-07-12T00:11:11;1.73;;;0.60;;
45536;SDS011;31262;51.978;5.924;2022-07-12T00:13:37;1.80;;;0.52;;
45536;SDS011;31262;51.978;5.924;2022-07-12T00:16:03;1.73;;;0.63;;
45536;SDS011;31262;51.978;5.924;2022-07-12T00:18:29;2.72;;;0.80;;
45536;SDS011;31262;51.978;5.924;2022-07-12T00:20:54;2.00;;;0.70;;
45536;SDS011;31262;51.978;5.924;2022-07-12T00:23:20;2.28;;;0.80;;
45536;SDS011;31262;51.978;5.924;2022-07-12T00:25:45;2.60;;;0.80;;
45536;SDS011;31262;51.978;5.924;2022-07-12T00:28:11;2.28;;;0.88;;
45536;SDS011;31262;51.978;5.924;2022-07-12T00:30:37;2.25;;;0.80;;
45536;SDS011;31262;51.978;5.924;2022-07-12T00:33:03;1.95;;;0.80;;
45536;SDS011;31262;51.978;5.924;2022-07-12T00:35:28;2.03;;;0.90;;
45536;SDS011;31262;51.978;5.924;2022-07-12T00:37:54;1.50;;;0.60;;
45536;SDS011;31262;51.978;5.924;2022-07-12T00:40:19;2.00;;;0.70;;
45536;SDS011;31262;51.978;5.924;2022-07-12T00:42:45;2.17;;;0.88;;
45536;SDS011;31262;51.978;5.924;2022-07-12T00:45:11;2.13;;;0.73;;
45536;SDS011;31262;51.978;5.924;2022-07-12T00:47:38;2.35;;;0.80;;
45536;SDS011;31262;51.978;5.924;2022-07-12T00:50:20;2.25;;;1.02;;
45536;SDS011;31262;51.978;5.924;2022-07-12T00:52:47;2.65;;;0.70;;
45536;SDS011;31262;51.978;5.924;2022-07-12T00:55:14;1.80;;;0.70;;
45536;SDS011;31262;51.978;5.924;2022-07-12T00:57:41;1.92;;;0.60;;
45536;SDS011;31262;51.978;5.924;2022-07-12T01:00:14;1.63;;;0.60;;
45536;SDS011;31262;51.978;5.924;2022-07-12T01:02:42;2.13;;;0.70;;
45536;SDS011;31262;51.978;5.924;2022-07-12T01:05:09;1.25;;;0.50;;
45536;SDS011;31262;51.978;5.924;2022-07-12T01:07:35;1.67;;;0.52;;
45536;SDS011;31262;51.978;5.924;2022-07-12T01:10:02;4.03;;;0.90;;
45536;SDS011;31262;51.978;5.924;2022-07-12T01:12:28;1.70;;;0.70;;
45536;SDS011;31262;51.978;5.924;2022-07-12T01:14:55;1.60;;;0.60;;
45536;SDS011;31262;51.978;5.924;2022-07-12T01:17:22;1.67;;;0.52;;
45536;SDS011;31262;51.978;5.924;2022-07-12T01:19:50;2.00;;;0.50;;
45536;SDS011;31262;51.978;5.924;2022-07-12T01:22:18;1.67;;;0.60;;
45536;SDS011;31262;51.978;5.924;2022-07-12T01:24:44;1.48;;;0.50;;
45536;SDS011;31262;51.978;5.924;2022-07-12T01:27:10;1.45;;;0.50;;
45536;SDS011;31262;51.978;5.924;2022-07-12T01:29:37;1.50;;;0.60;;
45536;SDS011;31262;51.978;5.924;2022-07-12T01:32:03;1.50;;;0.60;;
45536;SDS011;31262;51.978;5.924;2022-07-12T01:34:48;1.13;;;0.40;;
45536;SDS011;31262;51.978;5.924;2022-07-12T01:37:15;1.65;;;0.40;;
45536;SDS011;31262;51.978;5.924;2022-07-12T01:39:42;1.50;;;0.50;;
45536;SDS011;31262;51.978;5.924;2022-07-12T01:42:08;1.35;;;0.60;;
45536;SDS011;31262;51.978;5.924;2022-07-12T01:44:34;2.15;;;0.60;;
45536;SDS011;31262;51.978;5.924;2022-07-12T01:47:00;1.30;;;0.50;;
45536;SDS011;31262;51.978;5.924;2022-07-12T01:49:26;1.45;;;0.60;;
45536;SDS011;31262;51.978;5.924;2022-07-12T01:51:51;1.23;;;0.50;;
45536;SDS011;31262;51.978;5.924;2022-07-12T01:54:19;1.45;;;0.50;;
45536;SDS011;31262;51.978;5.924;2022-07-12T01:56:45;1.30;;;0.70;;
45536;SDS011;31262;51.978;5.924;2022-07-12T01:59:11;1.85;;;0.50;;
45536;SDS011;31262;51.978;5.924;2022-07-12T02:01:37;1.50;;;0.50;;
45536;SDS011;31262;51.978;5.924;2022-07-12T02:04:03;2.15;;;0.60;;
45536;SDS011;31262;51.978;5.924;2022-07-12T02:06:30;2.58;;;0.50;;
45536;SDS011;31262;51.978;5.924;2022-07-12T02:08:55;1.30;;;0.60;;
45536;SDS011;31262;51.978;5.924;2022-07-12T02:11:21;2.50;;;0.60;;
45536;SDS011;31262;51.978;5.924;2022-07-12T02:13:46;1.33;;;0.50;;
45536;SDS011;31262;51.978;5.924;2022-07-12T02:16:12;1.50;;;0.50;;
45536;SDS011;31262;51.978;5.924;2022-07-12T02:18:38;2.15;;;0.70;;
45536;SDS011;31262;51.978;5.924;2022-07-12T02:21:03;1.50;;;0.50;;
45536;SDS011;31262;51.978;5.924;2022-07-12T02:23:29;2.20;;;0.65;;
45536;SDS011;31262;51.978;5.924;2022-07-12T02:25:55;1.75;;;0.60;;
45536;SDS011;31262;51.978;5.924;2022-07-12T02:28:20;1.30;;;0.60;;
45536;SDS011;31262;51.978;5.924;2022-07-12T02:30:46;1.40;;;0.50;;
45536;SDS011;31262;51.978;5.924;2022-07-12T02:33:12;1.75;;;0.60;;
45536;SDS011;31262;51.978;5.924;2022-07-12T02:35:40;2.03;;;0.68;;
45536;SDS011;31262;51.978;5.924;2022-07-12T02:38:07;1.67;;;0.70;;
45536;SDS011;31262;51.978;5.924;2022-07-12T02:40:32;1.67;;;0.60;;
45536;SDS011;31262;51.978;5.924;2022-07-12T02:43:16;1.45;;;0.60;;
45536;SDS011;31262;51.978;5.924;2022-07-12T02:45:42;1.60;;;0.80;;
45536;SDS011;31262;51.978;5.924;2022-07-12T02:48:08;1.50;;;0.50;;
45536;SDS011;31262;51.978;5.924;2022-07-12T02:50:35;2.35;;;0.70;;
45536;SDS011;31262;51.978;5.924;2022-07-12T02:53:02;1.77;;;0.68;;
45536;SDS011;31262;51.978;5.924;2022-07-12T02:55:28;1.48;;;0.60;;
45536;SDS011;31262;51.978;5.924;2022-07-12T02:57:54;1.40;;;0.60;;
45536;SDS011;31262;51.978;5.924;2022-07-12T03:00:19;3.35;;;0.90;;
45536;SDS011;31262;51.978;5.924;2022-07-12T03:02:46;1.55;;;0.60;;
45536;SDS011;31262;51.978;5.924;2022-07-12T03:05:11;2.55;;;0.70;;
45536;SDS011;31262;51.978;5.924;2022-07-12T03:07:38;2.70;;;0.93;;
45536;SDS011;31262;51.978;5.924;2022-07-12T03:10:04;1.98;;;0.50;;
45536;SDS011;31262;51.978;5.924;2022-07-12T03:12:30;2.70;;;0.70;;
45536;SDS011;31262;51.978;5.924;2022-07-12T03:14:56;3.60;;;0.80;;
45536;SDS011;31262;51.978;5.924;2022-07-12T03:17:21;1.92;;;0.75;;
45536;SDS011;31262;51.978;5.924;2022-07-12T03:19:47;3.50;;;0.90;;
45536;SDS011;31262;51.978;5.924;2022-07-12T03:22:13;1.30;;;0.68;;
45536;SDS011;31262;51.978;5.924;2022-07-12T03:24:38;1.70;;;0.60;;
45536;SDS011;31262;51.978;5.924;2022-07-12T03:27:04;2.55;;;0.70;;
45536;SDS011;31262;51.978;5.924;2022-07-12T03:29:30;1.80;;;0.60;;
45536;SDS011;31262;51.978;5.924;2022-07-12T03:31:56;1.65;;;0.63;;
45536;SDS011;31262;51.978;5.924;2022-07-12T03:34:21;1.83;;;0.75;;
45536;SDS011;31262;51.978;5.924;2022-07-12T03:36:47;1.95;;;0.85;;
45536;SDS011;31262;51.978;5.924;2022-07-12T03:39:13;1.55;;;0.80;;
45536;SDS011;31262;51.978;5.924;2022-07-12T03:41:38;1.70;;;0.70;;
45536;SDS011;31262;51.978;5.924;2022-07-12T03:44:04;2.60;;;1.02;;
45536;SDS011;31262;51.978;5.924;2022-07-12T03:46:31;2.08;;;0.90;;
45536;SDS011;31262;51.978;5.924;2022-07-12T03:48:57;2.10;;;0.90;;
45536;SDS011;31262;51.978;5.924;2022-07-12T03:51:24;1.88;;;0.85;;
45536;SDS011;31262;51.978;5.924;2022-07-12T03:53:50;2.58;;;1.10;;
45536;SDS011;31262;51.978;5.924;2022-07-12T03:56:15;2.28;;;1.08;;
45536;SDS011;31262;51.978;5.924;2022-07-12T03:59:01;2.70;;;1.05;;
45536;SDS011;31262;51.978;5.924;2022-07-12T04:01:27;2.50;;;1.13;;
45536;SDS011;31262;51.978;5.924;2022-07-12T04:03:52;2.03;;;0.93;;
45536;SDS011;31262;51.978;5.924;2022-07-12T04:06:19;2.95;;;1.15;;
45536;SDS011;31262;51.978;5.924;2022-07-12T04:08:45;2.90;;;1.10;;
45536;SDS011;31262;51.978;5.924;2022-07-12T04:11:10;3.90;;;0.90;;
45536;SDS011;31262;51.978;5.924;2022-07-12T04:13:36;1.88;;;1.00;;
45536;SDS011;31262;51.978;5.924;2022-07-12T04:16:02;2.05;;;1.05;;
45536;SDS011;31262;51.978;5.924;2022-07-12T04:18:28;2.13;;;1.10;;
45536;SDS011;31262;51.978;5.924;2022-07-12T04:20:54;2.90;;;1.10;;
45536;SDS011;31262;51.978;5.924;2022-07-12T04:23:20;2.22;;;1.20;;
45536;SDS011;31262;51.978;5.924;2022-07-12T04:25:45;2.03;;;0.98;;
45536;SDS011;31262;51.978;5.924;2022-07-12T04:28:11;2.38;;;1.25;;
45536;SDS011;31262;51.978;5.924;2022-07-12T04:30:36;2.17;;;1.23;;
45536;SDS011;31262;51.978;5.924;2022-07-12T04:33:02;2.28;;;1.20;;
45536;SDS011;31262;51.978;5.924;2022-07-12T04:35:27;1.95;;;0.88;;
45536;SDS011;31262;51.978;5.924;2022-07-12T04:37:53;2.40;;;1.08;;
45536;SDS011;31262;51.978;5.924;2022-07-12T04:40:20;2.25;;;1.13;;
45536;SDS011;31262;51.978;5.924;2022-07-12T04:42:45;2.47;;;1.00;;
45536;SDS011;31262;51.978;5.924;2022-07-12T04:45:11;3.03;;;1.42;;
45536;SDS011;31262;51.978;5.924;2022-07-12T04:47:36;1.95;;;1.25;;
45536;SDS011;31262;51.978;5.924;2022-07-12T04:50:11;2.38;;;1.35;;
45536;SDS011;31262;51.978;5.924;2022-07-12T04:52:37;3.08;;;1.73;;
45536;SDS011;31262;51.978;5.924;2022-07-12T04:55:03;2.70;;;1.70;;
45536;SDS011;31262;51.978;5.924;2022-07-12T04:57:29;3.95;;;2.13;;
45536;SDS011;31262;51.978;5.924;2022-07-12T04:59:55;3.13;;;2.30;;
45536;SDS011;31262;51.978;5.924;2022-07-12T05:02:21;3.70;;;2.42;;
45536;SDS011;31262;51.978;5.924;2022-07-12T05:04:46;3.90;;;2.40;;
45536;SDS011;31262;51.978;5.924;2022-07-12T05:07:12;4.43;;;2.97;;
45536;SDS011;31262;51.978;5.924;2022-07-12T05:09:37;4.25;;;3.17;;
45536;SDS011;31262;51.978;5.924;2022-07-12T05:12:03;2.75;;;1.48;;
45536;SDS011;31262;51.978;5.924;2022-07-12T05:14:29;1.95;;;0.60;;
45536;SDS011;31262;51.978;5.924;2022-07-12T05:16:54;4.10;;;2.08;;
45536;SDS011;31262;51.978;5.924;2022-07-12T05:19:20;3.58;;;2.70;;
45536;SDS011;31262;51.978;5.924;2022-07-12T05:21:46;3.63;;;2.90;;
45536;SDS011;31262;51.978;5.924;2022-07-12T05:24:11;4.82;;;3.63;;
45536;SDS011;31262;51.978;5.924;2022-07-12T05:26:37;5.60;;;4.07;;
45536;SDS011;31262;51.978;5.924;2022-07-12T05:29:03;4.50;;;4.00;;
45536;SDS011;31262;51.978;5.924;2022-07-12T05:31:29;6.80;;;5.28;;
45536;SDS011;31262;51.978;5.924;2022-07-12T05:33:54;6.13;;;5.53;;
45536;SDS011;31262;51.978;5.924;2022-07-12T05:36:20;5.65;;;4.63;;
45536;SDS011;31262;51.978;5.924;2022-07-12T05:38:46;5.50;;;4.43;;
45536;SDS011;31262;51.978;5.924;2022-07-12T05:41:11;5.40;;;4.38;;
45536;SDS011;31262;51.978;5.924;2022-07-12T05:43:37;5.25;;;4.30;;
45536;SDS011;31262;51.978;5.924;2022-07-12T05:46:03;5.65;;;5.05;;
45536;SDS011;31262;51.978;5.924;2022-07-12T05:48:30;6.32;;;4.88;;
45536;SDS011;31262;51.978;5.924;2022-07-12T05:50:55;4.53;;;4.13;;
45536;SDS011;31262;51.978;5.924;2022-07-12T05:53:41;7.03;;;4.95;;
45536;SDS011;31262;51.978;5.924;2022-07-12T05:56:06;5.60;;;4.97;;
45536;SDS011;31262;51.978;5.924;2022-07-12T05:58:32;6.80;;;6.07;;
45536;SDS011;31262;51.978;5.924;2022-07-12T06:00:58;8.07;;;7.03;;
45536;SDS011;31262;51.978;5.924;2022-07-12T06:03:23;8.25;;;6.85;;
45536;SDS011;31262;51.978;5.924;2022-07-12T06:05:49;7.65;;;6.75;;
45536;SDS011;31262;51.978;5.924;2022-07-12T06:08:14;7.90;;;6.78;;
45536;SDS011;31262;51.978;5.924;2022-07-12T06:10:40;7.20;;;6.50;;
45536;SDS011;31262;51.978;5.924;2022-07-12T06:13:05;7.10;;;6.35;;
45536;SDS011;31262;51.978;5.924;2022-07-12T06:15:32;6.57;;;5.60;;
45536;SDS011;31262;51.978;5.924;2022-07-12T06:17:57;6.90;;;6.20;;
45536;SDS011;31262;51.978;5.924;2022-07-12T06:20:23;6.43;;;5.80;;
45536;SDS011;31262;51.978;5.924;2022-07-12T06:22:49;7.55;;;6.00;;
45536;SDS011;31262;51.978;5.924;2022-07-12T06:25:15;5.88;;;5.28;;
45536;SDS011;31262;51.978;5.924;2022-07-12T06:27:40;4.20;;;3.67;;
45536;SDS011;31262;51.978;5.924;2022-07-12T06:30:06;6.55;;;5.88;;
45536;SDS011;31262;51.978;5.924;2022-07-12T06:32:32;6.15;;;5.35;;
45536;SDS011;31262;51.978;5.924;2022-07-12T06:34:58;6.80;;;6.07;;
45536;SDS011;31262;51.978;5.924;2022-07-12T06:37:24;7.25;;;6.13;;
45536;SDS011;31262;51.978;5.924;2022-07-12T06:39:49;6.32;;;5.15;;
45536;SDS011;31262;51.978;5.924;2022-07-12T06:42:15;6.43;;;4.75;;
45536;SDS011;31262;51.978;5.924;2022-07-12T06:44:41;4.93;;;3.95;;
45536;SDS011;31262;51.978;5.924;2022-07-12T06:47:06;4.30;;;3.78;;
45536;SDS011;31262;51.978;5.924;2022-07-12T06:49:32;5.88;;;4.78;;
45536;SDS011;31262;51.978;5.924;2022-07-12T06:51:57;5.63;;;3.88;;
45536;SDS011;31262;51.978;5.924;2022-07-12T06:54:23;5.82;;;3.50;;
45536;SDS011;31262;51.978;5.924;2022-07-12T06:56:50;5.38;;;4.63;;
45536;SDS011;31262;51.978;5.924;2022-07-12T06:59:15;4.85;;;3.65;;
45536;SDS011;31262;51.978;5.924;2022-07-12T07:01:41;5.72;;;3.15;;
45536;SDS011;31262;51.978;5.924;2022-07-12T07:04:08;5.18;;;3.70;;
45536;SDS011;31262;51.978;5.924;2022-07-12T07:06:34;4.47;;;3.72;;
45536;SDS011;31262;51.978;5.924;2022-07-12T07:08:59;4.63;;;4.05;;
45536;SDS011;31262;51.978;5.924;2022-07-12T07:11:25;4.63;;;3.47;;
45536;SDS011;31262;51.978;5.924;2022-07-12T07:13:51;4.50;;;3.70;;
45536;SDS011;31262;51.978;5.924;2022-07-12T07:16:17;4.50;;;3.13;;
45536;SDS011;31262;51.978;5.924;2022-07-12T07:18:47;3.88;;;3.50;;
45536;SDS011;31262;51.978;5.924;2022-07-12T07:21:13;5.18;;;3.33;;
45536;SDS011;31262;51.978;5.924;2022-07-12T07:23:39;3.85;;;3.00;;
45536;SDS011;31262;51.978;5.924;2022-07-12T07:26:04;4.75;;;3.50;;
45536;SDS011;31262;51.978;5.924;2022-07-12T07:28:30;5.25;;;2.72;;
45536;SDS011;31262;51.978;5.924;2022-07-12T07:30:55;4.60;;;2.08;;
45536;SDS011;31262;51.978;5.924;2022-07-12T07:33:21;3.70;;;2.20;;
45536;SDS011;31262;51.978;5.924;2022-07-12T07:35:48;3.45;;;1.75;;
45536;SDS011;31262;51.978;5.924;2022-07-12T07:38:15;2.05;;;1.20;;
45536;SDS011;31262;51.978;5.924;2022-07-12T07:40:41;3.35;;;1.40;;
45536;SDS011;31262;51.978;5.924;2022-07-12T07:43:07;3.40;;;1.92;;
45536;SDS011;31262;51.978;5.924;2022-07-12T07:45:33;3.22;;;1.45;;
45536;SDS011;31262;51.978;5.924;2022-07-12T07:47:58;6.80;;;1.65;;
45536;SDS011;31262;51.978;5.924;2022-07-12T07:50:24;2.83;;;1.63;;
45536;SDS011;31262;51.978;5.924;2022-07-12T07:52:50;4.00;;;2.30;;
45536;SDS011;31262;51.978;5.924;2022-07-12T07:55:16;3.65;;;2.10;;
45536;SDS011;31262;51.978;5.924;2022-07-12T07:57:42;3.17;;;1.88;;
45536;SDS011;31262;51.978;5.924;2022-07-12T08:00:08;2.72;;;1.92;;
45536;SDS011;31262;51.978;5.924;2022-07-12T08:02:37;2.17;;;1.13;;
45536;SDS011;31262;51.978;5.924;2022-07-12T08:05:03;3.58;;;1.63;;
45536;SDS011;31262;51.978;5.924;2022-07-12T08:07:28;4.25;;;1.70;;
45536;SDS011;31262;51.978;5.924;2022-07-12T08:09:54;3.20;;;2.00;;
45536;SDS011;31262;51.978;5.924;2022-07-12T08:12:22;3.10;;;2.13;;
45536;SDS011;31262;51.978;5.924;2022-07-12T08:14:51;2.50;;;1.42;;
45536;SDS011;31262;51.978;5.924;2022-07-12T08:17:17;1.80;;;1.00;;
45536;SDS011;31262;51.978;5.924;2022-07-12T08:19:42;2.97;;;1.80;;
45536;SDS011;31262;51.978;5.924;2022-07-12T08:22:08;2.60;;;1.67;;
45536;SDS011;31262;51.978;5.924;2022-07-12T08:24:34;3.13;;;1.50;;
45536;SDS011;31262;51.978;5.924;2022-07-12T08:27:00;2.38;;;0.90;;
45536;SDS011;31262;51.978;5.924;2022-07-12T08:29:26;1.88;;;1.02;;
45536;SDS011;31262;51.978;5.924;2022-07-12T08:31:51;2.97;;;1.85;;
45536;SDS011;31262;51.978;5.924;2022-07-12T08:34:17;3.10;;;1.90;;
45536;SDS011;31262;51.978;5.924;2022-07-12T08:36:42;1.98;;;1.13;;
45536;SDS011;31262;51.978;5.924;2022-07-12T08:39:08;3.88;;;0.90;;
45536;SDS011;31262;51.978;5.924;2022-07-12T08:41:33;2.45;;;0.82;;
45536;SDS011;31262;51.978;5.924;2022-07-12T08:43:59;1.73;;;0.80;;
45536;SDS011;31262;51.978;5.924;2022-07-12T08:46:26;2.30;;;0.68;;
45536;SDS011;31262;51.978;5.924;2022-07-12T08:48:52;2.40;;;0.80;;
45536;SDS011;31262;51.978;5.924;2022-07-12T08:51:18;2.03;;;0.65;;
45536;SDS011;31262;51.978;5.924;2022-07-12T08:53:45;1.58;;;0.73;;
45536;SDS011;31262;51.978;5.924;2022-07-12T08:56:29;5.35;;;0.88;;
45536;SDS011;31262;51.978;5.924;2022-07-12T08:59:10;3.17;;;0.60;;
45536;SDS011;31262;51.978;5.924;2022-07-12T09:04:13;1.80;;;0.68;;
45536;SDS011;31262;51.978;5.924;2022-07-12T09:06:43;1.20;;;0.50;;
45536;SDS011;31262;51.978;5.924;2022-07-12T09:09:09;1.30;;;0.60;;
45536;SDS011;31262;51.978;5.924;2022-07-12T09:11:35;1.90;;;0.70;;
45536;SDS011;31262;51.978;5.924;2022-07-12T09:14:02;1.58;;;0.70;;
45536;SDS011;31262;51.978;5.924;2022-07-12T09:16:28;1.80;;;0.93;;
45536;SDS011;31262;51.978;5.924;2022-07-12T09:21:53;1.33;;;0.40;;
45536;SDS011;31262;51.978;5.924;2022-07-12T09:24:19;2.10;;;0.60;;
45536;SDS011;31262;51.978;5.924;2022-07-12T09:26:48;1.70;;;0.70;;
45536;SDS011;31262;51.978;5.924;2022-07-12T09:29:28;3.85;;;0.90;;
45536;SDS011;31262;51.978;5.924;2022-07-12T09:31:53;1.40;;;0.50;;
45536;SDS011;31262;51.978;5.924;2022-07-12T09:34:38;2.17;;;0.50;;
45536;SDS011;31262;51.978;5.924;2022-07-12T09:37:25;1.30;;;0.50;;
45536;SDS011;31262;51.978;5.924;2022-07-12T09:39:52;2.15;;;0.50;;
45536;SDS011;31262;51.978;5.924;2022-07-12T09:42:21;1.50;;;0.40;;
45536;SDS011;31262;51.978;5.924;2022-07-12T09:44:47;0.98;;;0.32;;
45536;SDS011;31262;51.978;5.924;2022-07-12T09:47:14;1.75;;;0.40;;
45536;SDS011;31262;51.978;5.924;2022-07-12T09:49:41;2.97;;;0.60;;
45536;SDS011;31262;51.978;5.924;2022-07-12T09:52:13;2.45;;;0.50;;
45536;SDS011;31262;51.978;5.924;2022-07-12T09:54:44;1.35;;;0.40;;
45536;SDS011;31262;51.978;5.924;2022-07-12T09:57:31;1.55;;;0.40;;
45536;SDS011;31262;51.978;5.924;2022-07-12T09:59:58;2.95;;;0.60;;
45536;SDS011;31262;51.978;5.924;2022-07-12T10:02:24;3.47;;;0.52;;
45536;SDS011;31262;51.978;5.924;2022-07-12T10:04:50;1.92;;;0.65;;
45536;SDS011;31262;51.978;5.924;2022-07-12T10:07:17;2.00;;;0.47;;
45536;SDS011;31262;51.978;5.924;2022-07-12T10:09:43;2.10;;;0.50;;
45536;SDS011;31262;51.978;5.924;2022-07-12T10:12:11;1.90;;;0.50;;
45536;SDS011;31262;51.978;5.924;2022-07-12T10:14:40;1.60;;;0.60;;
45536;SDS011;31262;51.978;5.924;2022-07-12T10:17:07;1.52;;;0.50;;
45536;SDS011;31262;51.978;5.924;2022-07-12T10:19:37;1.90;;;0.40;;
45536;SDS011;31262;51.978;5.924;2022-07-12T10:22:04;1.95;;;0.47;;
45536;SDS011;31262;51.978;5.924;2022-07-12T10:29:41;0.68;;;0.28;;
45536;SDS011;31262;51.978;5.924;2022-07-12T10:32:20;0.95;;;0.30;;
45536;SDS011;31262;51.978;5.924;2022-07-12T10:35:05;1.10;;;0.30;;
45536;SDS011;31262;51.978;5.924;2022-07-12T10:40:37;2.00;;;0.20;;
45536;SDS011;31262;51.978;5.924;2022-07-12T10:45:30;1.13;;;0.20;;
45536;SDS011;31262;51.978;5.924;2022-07-12T10:47:57;0.75;;;0.20;;
45536;SDS011;31262;51.978;5.924;2022-07-12T10:58:44;1.07;;;0.30;;
45536;SDS011;31262;51.978;5.924;2022-07-12T11:01:15;0.95;;;0.20;;
45536;SDS011;31262;51.978;5.924;2022-07-12T11:03:45;1.35;;;0.20;;
45536;SDS011;31262;51.978;5.924;2022-07-12T11:06:16;1.23;;;0.35;;
45536;SDS011;31262;51.978;5.924;2022-07-12T11:11:13;0.73;;;0.20;;
45536;SDS011;31262;51.978;5.924;2022-07-12T11:13:38;0.57;;;0.32;;
45536;SDS011;31262;51.978;5.924;2022-07-12T11:16:04;1.40;;;0.60;;
45536;SDS011;31262;51.978;5.924;2022-07-12T11:18:30;6.07;;;0.60;;
45536;SDS011;31262;51.978;5.924;2022-07-12T11:20:58;2.07;;;0.50;;
45536;SDS011;31262;51.978;5.924;2022-07-12T11:23:25;1.00;;;0.40;;
45536;SDS011;31262;51.978;5.924;2022-07-12T11:25:54;1.33;;;0.50;;
45536;SDS011;31262;51.978;5.924;2022-07-12T11:28:27;2.15;;;0.40;;
45536;SDS011;31262;51.978;5.924;2022-07-12T11:31:00;0.70;;;0.20;;
45536;SDS011;31262;51.978;5.924;2022-07-12T11:33:29;1.27;;;0.30;;
45536;SDS011;31262;51.978;5.924;2022-07-12T11:35:59;0.90;;;0.30;;
45536;SDS011;31262;51.978;5.924;2022-07-12T11:38:27;1.50;;;0.50;;
45536;SDS011;31262;51.978;5.924;2022-07-12T11:40:59;0.98;;;0.40;;
45536;SDS011;31262;51.978;5.924;2022-07-12T11:43:27;0.70;;;0.30;;
45536;SDS011;31262;51.978;5.924;2022-07-12T11:45:53;0.77;;;0.30;;
45536;SDS011;31262;51.978;5.924;2022-07-12T11:48:19;1.33;;;0.20;;
45536;SDS011;31262;51.978;5.924;2022-07-12T11:50:46;1.35;;;0.40;;
45536;SDS011;31262;51.978;5.924;2022-07-12T11:53:19;1.75;;;0.30;;
45536;SDS011;31262;51.978;5.924;2022-07-12T11:55:52;0.90;;;0.30;;
45536;SDS011;31262;51.978;5.924;2022-07-12T11:58:22;1.00;;;0.30;;
45536;SDS011;31262;51.978;5.924;2022-07-12T12:00:49;1.52;;;0.30;;
45536;SDS011;31262;51.978;5.924;2022-07-12T12:03:16;1.00;;;0.30;;
45536;SDS011;31262;51.978;5.924;2022-07-12T12:05:42;0.55;;;0.20;;
45536;SDS011;31262;51.978;5.924;2022-07-12T12:08:10;0.50;;;0.20;;
45536;SDS011;31262;51.978;5.924;2022-07-12T12:10:37;1.70;;;0.50;;
45536;SDS011;31262;51.978;5.924;2022-07-12T12:13:11;1.08;;;0.30;;
45536;SDS011;31262;51.978;5.924;2022-07-12T12:15:48;0.73;;;0.30;;
45536;SDS011;31262;51.978;5.924;2022-07-12T12:18:16;1.67;;;0.60;;
45536;SDS011;31262;51.978;5.924;2022-07-12T12:20:42;1.20;;;0.50;;
45536;SDS011;31262;51.978;5.924;2022-07-12T12:23:17;1.30;;;0.40;;
45536;SDS011;31262;51.978;5.924;2022-07-12T12:25:45;1.75;;;0.40;;
45536;SDS011;31262;51.978;5.924;2022-07-12T12:28:11;2.40;;;0.57;;
45536;SDS011;31262;51.978;5.924;2022-07-12T12:30:51;2.05;;;0.52;;
45536;SDS011;31262;51.978;5.924;2022-07-12T12:33:37;1.10;;;0.50;;
45536;SDS011;31262;51.978;5.924;2022-07-12T12:36:20;1.08;;;0.40;;
45536;SDS011;31262;51.978;5.924;2022-07-12T12:38:48;1.52;;;0.30;;
45536;SDS011;31262;51.978;5.924;2022-07-12T12:41:19;1.10;;;0.40;;
45536;SDS011;31262;51.978;5.924;2022-07-12T12:46:13;1.00;;;0.50;;
45536;SDS011;31262;51.978;5.924;2022-07-12T12:48:45;0.70;;;0.30;;
45536;SDS011;31262;51.978;5.924;2022-07-12T12:51:11;3.15;;;0.40;;
45536;SDS011;31262;51.978;5.924;2022-07-12T12:53:38;0.70;;;0.25;;
45536;SDS011;31262;51.978;5.924;2022-07-12T12:56:06;0.90;;;0.22;;
45536;SDS011;31262;51.978;5.924;2022-07-12T12:58:39;1.05;;;0.40;;
45536;SDS011;31262;51.978;5.924;2022-07-12T13:01:05;1.60;;;0.60;;
45536;SDS011;31262;51.978;5.924;2022-07-12T13:03:32;1.58;;;0.40;;
45536;SDS011;31262;51.978;5.924;2022-07-12T13:05:57;1.08;;;0.40;;
45536;SDS011;31262;51.978;5.924;2022-07-12T13:08:24;0.98;;;0.40;;
45536;SDS011;31262;51.978;5.924;2022-07-12T13:10:51;0.93;;;0.40;;
45536;SDS011;31262;51.978;5.924;2022-07-12T13:13:38;1.75;;;0.40;;
45536;SDS011;31262;51.978;5.924;2022-07-12T13:16:05;2.75;;;0.60;;
45536;SDS011;31262;51.978;5.924;2022-07-12T13:18:31;2.20;;;0.50;;
45536;SDS011;31262;51.978;5.924;2022-07-12T13:20:57;0.60;;;0.30;;
45536;SDS011;31262;51.978;5.924;2022-07-12T13:23:22;2.38;;;0.43;;
45536;SDS011;31262;51.978;5.924;2022-07-12T13:25:48;1.40;;;0.47;;
45536;SDS011;31262;51.978;5.924;2022-07-12T13:28:14;0.88;;;0.40;;
45536;SDS011;31262;51.978;5.924;2022-07-12T13:30:39;1.20;;;0.40;;
45536;SDS011;31262;51.978;5.924;2022-07-12T13:33:05;1.65;;;0.57;;
45536;SDS011;31262;51.978;5.924;2022-07-12T13:35:31;1.45;;;0.50;;
45536;SDS011;31262;51.978;5.924;2022-07-12T13:37:56;5.18;;;0.40;;
45536;SDS011;31262;51.978;5.924;2022-07-12T13:40:22;1.42;;;0.50;;
45536;SDS011;31262;51.978;5.924;2022-07-12T13:42:51;1.42;;;0.60;;
45536;SDS011;31262;51.978;5.924;2022-07-12T13:45:21;1.10;;;0.43;;
45536;SDS011;31262;51.978;5.924;2022-07-12T13:47:48;0.90;;;0.38;;
45536;SDS011;31262;51.978;5.924;2022-07-12T13:50:16;0.70;;;0.20;;
45536;SDS011;31262;51.978;5.924;2022-07-12T13:52:43;1.57;;;0.50;;
45536;SDS011;31262;51.978;5.924;2022-07-12T13:55:11;0.98;;;0.30;;
45536;SDS011;31262;51.978;5.924;2022-07-12T13:57:38;1.15;;;0.40;;
45536;SDS011;31262;51.978;5.924;2022-07-12T14:00:14;2.38;;;0.60;;
45536;SDS011;31262;51.978;5.924;2022-07-12T14:02:41;1.20;;;0.40;;
45536;SDS011;31262;51.978;5.924;2022-07-12T14:05:09;1.10;;;0.40;;
45536;SDS011;31262;51.978;5.924;2022-07-12T14:07:36;1.45;;;0.40;;
45536;SDS011;31262;51.978;5.924;2022-07-12T14:10:03;1.02;;;0.40;;
45536;SDS011;31262;51.978;5.924;2022-07-12T14:12:29;1.20;;;0.40;;
45536;SDS011;31262;51.978;5.924;2022-07-12T14:14:55;2.30;;;0.50;;
45536;SDS011;31262;51.978;5.924;2022-07-12T14:17:36;1.55;;;0.38;;
45536;SDS011;31262;51.978;5.924;2022-07-12T14:20:02;1.17;;;0.47;;
45536;SDS011;31262;51.978;5.924;2022-07-12T14:22:28;2.17;;;0.50;;
45536;SDS011;31262;51.978;5.924;2022-07-12T14:24:55;2.28;;;0.50;;
45536;SDS011;31262;51.978;5.924;2022-07-12T14:27:21;0.70;;;0.40;;
45536;SDS011;31262;51.978;5.924;2022-07-12T14:29:46;0.90;;;0.40;;
45536;SDS011;31262;51.978;5.924;2022-07-12T14:32:12;2.92;;;0.70;;
45536;SDS011;31262;51.978;5.924;2022-07-12T14:34:38;2.03;;;0.50;;
45536;SDS011;31262;51.978;5.924;2022-07-12T14:37:03;3.28;;;1.00;;
45536;SDS011;31262;51.978;5.924;2022-07-12T14:39:29;1.90;;;0.75;;
45536;SDS011;31262;51.978;5.924;2022-07-12T14:41:55;1.42;;;0.50;;
45536;SDS011;31262;51.978;5.924;2022-07-12T14:44:21;1.17;;;0.40;;
45536;SDS011;31262;51.978;5.924;2022-07-12T14:46:46;0.75;;;0.30;;
45536;SDS011;31262;51.978;5.924;2022-07-12T14:49:12;4.07;;;0.80;;
45536;SDS011;31262;51.978;5.924;2022-07-12T14:51:38;1.08;;;0.40;;
45536;SDS011;31262;51.978;5.924;2022-07-12T14:54:03;1.15;;;0.43;;
45536;SDS011;31262;51.978;5.924;2022-07-12T14:56:29;1.13;;;0.40;;
45536;SDS011;31262;51.978;5.924;2022-07-12T14:58:55;1.90;;;0.50;;
45536;SDS011;31262;51.978;5.924;2022-07-12T15:01:21;1.00;;;0.40;;
45536;SDS011;31262;51.978;5.924;2022-07-12T15:03:46;1.77;;;0.50;;
45536;SDS011;31262;51.978;5.924;2022-07-12T15:06:12;1.60;;;0.40;;
45536;SDS011;31262;51.978;5.924;2022-07-12T15:08:37;0.80;;;0.30;;
45536;SDS011;31262;51.978;5.924;2022-07-12T15:11:03;1.60;;;0.70;;
45536;SDS011;31262;51.978;5.924;2022-07-12T15:13:29;2.53;;;0.60;;
45536;SDS011;31262;51.978;5.924;2022-07-12T15:15:56;1.25;;;0.50;;
45536;SDS011;31262;51.978;5.924;2022-07-12T15:18:22;1.90;;;0.68;;